createdAt,value
2023-03-08T00:02:09.805Z,98822.73
2023-03-08T00:04:41.601Z,98826.16
2023-03-08T00:07:13.354Z,98828.56
2023-03-08T00:09:45.374Z,98825.98
2023-03-08T00:12:19.236Z,98820.59
2023-03-08T00:14:51.309Z,98824.55
2023-03-08T00:17:24.351Z,98830.17
2023-03-08T00:19:56.185Z,98831.86
2023-03-08T00:22:27.993Z,98835.93
2023-03-08T00:24:59.618Z,98837.10
2023-03-08T00:27:31.446Z,98837.66
2023-03-08T00:30:03.202Z,98834.10
2023-03-08T00:32:34.868Z,98830.27
2023-03-08T00:35:07.338Z,98831.65
2023-03-08T00:37:38.966Z,98828.92
2023-03-08T00:40:12.824Z,98826.13
2023-03-08T00:42:44.678Z,98826.54
2023-03-08T00:45:16.538Z,98830.39
2023-03-08T00:47:48.149Z,98830.09
2023-03-08T00:50:20.337Z,98826.77
2023-03-08T00:52:52.085Z,98827.64
2023-03-08T00:55:23.813Z,98827.27
2023-03-08T00:57:55.654Z,98825.29
2023-03-08T01:00:27.642Z,98824.61
2023-03-08T01:02:59.607Z,98819.40
2023-03-08T01:05:32.571Z,98823.60
2023-03-08T01:08:05.125Z,98823.77
2023-03-08T01:10:37.055Z,98824.00
2023-03-08T01:13:09.948Z,98827.55
2023-03-08T01:15:41.748Z,98826.05
2023-03-08T01:18:13.691Z,98829.82
2023-03-08T01:20:45.493Z,98831.14
2023-03-08T01:23:18.247Z,98833.56
2023-03-08T01:25:50.073Z,98832.58
2023-03-08T01:28:22.120Z,98833.58
2023-03-08T01:30:53.779Z,98834.47
2023-03-08T01:33:25.464Z,98827.98
2023-03-08T01:35:57.190Z,98829.83
2023-03-08T01:38:28.898Z,98827.61
2023-03-08T01:41:01.548Z,98826.17
2023-03-08T01:43:35.496Z,98825.10
2023-03-08T01:46:17.445Z,98825.54
2023-03-08T01:48:54.693Z,98826.86
2023-03-08T01:51:33.182Z,98827.58
2023-03-08T01:54:08.134Z,98830.34
2023-03-08T01:56:40.974Z,98836.44
2023-03-08T01:59:13.458Z,98831.36
2023-03-08T02:01:45.598Z,98833.23
2023-03-08T02:04:17.854Z,98832.20
2023-03-08T02:06:49.931Z,98836.91
2023-03-08T02:09:25.610Z,98831.04
2023-03-08T02:12:00.474Z,98834.63
2023-03-08T02:14:30.945Z,98832.38
2023-03-08T02:17:03.086Z,98833.36
2023-03-08T02:19:40.544Z,98833.54
2023-03-08T02:22:14.395Z,98835.42
2023-03-08T02:27:42.944Z,98840.06
2023-03-08T02:30:18.154Z,98838.48
2023-03-08T02:32:49.897Z,98838.95
2023-03-08T02:35:22.156Z,98842.35
2023-03-08T02:37:56.938Z,98850.34
2023-03-08T02:40:29.488Z,98848.86
2023-03-08T02:43:01.291Z,98853.48
2023-03-08T02:45:34.101Z,98857.98
2023-03-08T02:48:07.959Z,98862.00
2023-03-08T02:50:40.355Z,98860.34
2023-03-08T02:53:12.855Z,98864.80
2023-03-08T02:55:44.666Z,98863.72
2023-03-08T02:58:17.647Z,98861.40
2023-03-08T03:00:49.567Z,98857.11
2023-03-08T03:03:21.440Z,98858.59
2023-03-08T03:05:55.819Z,98862.29
2023-03-08T03:08:33.995Z,98866.76
2023-03-08T03:11:13.977Z,98862.05
2023-03-08T03:13:45.732Z,98859.70
2023-03-08T03:16:19.166Z,98867.92
2023-03-08T03:18:51.146Z,98873.21
2023-03-08T03:21:23.701Z,98869.30
2023-03-08T03:23:56.633Z,98865.73
2023-03-08T03:26:34.200Z,98864.66
2023-03-08T03:29:06.120Z,98875.31
2023-03-08T03:31:39.948Z,98881.73
2023-03-08T03:34:11.710Z,98881.71
2023-03-08T03:36:43.649Z,98885.73
2023-03-08T03:39:15.489Z,98882.33
2023-03-08T03:41:47.606Z,98886.48
2023-03-08T03:44:19.926Z,98886.48
2023-03-08T03:46:53.180Z,98889.83
2023-03-08T03:49:28.584Z,98900.74
2023-03-08T03:52:00.532Z,98910.20
2023-03-08T03:54:39.185Z,98907.80
2023-03-08T03:57:11.327Z,98904.46
2023-03-08T03:59:45.771Z,98902.10
2023-03-08T04:02:19.439Z,98906.50
2023-03-08T04:04:58.833Z,98916.52
2023-03-08T04:07:33.833Z,98911.73
2023-03-08T04:10:09.029Z,98916.64
2023-03-08T04:12:41.451Z,98921.39
2023-03-08T04:15:15.949Z,98923.17
2023-03-08T04:17:47.746Z,98932.69
2023-03-08T04:20:22.278Z,98933.31
2023-03-08T04:22:59.201Z,98934.16
2023-03-08T04:25:36.063Z,98926.23
2023-03-08T04:28:08.906Z,98927.58
2023-03-08T04:30:41.039Z,98934.88
2023-03-08T04:33:13.468Z,98927.83
2023-03-08T04:35:51.996Z,98942.50
2023-03-08T04:38:25.313Z,98946.70
2023-03-08T04:41:10.980Z,98943.82
2023-03-08T04:44:03.375Z,98943.35
2023-03-08T04:46:50.631Z,98947.88
2023-03-08T04:49:28.421Z,98950.27
2023-03-08T04:52:04.722Z,98949.15
2023-03-08T04:54:38.496Z,98954.80
2023-03-08T04:57:24.878Z,98951.98
2023-03-08T04:59:58.738Z,98954.42
2023-03-08T05:02:33.387Z,98951.48
2023-03-08T05:05:05.935Z,98950.05
2023-03-08T05:07:37.891Z,98946.27
2023-03-08T05:10:11.225Z,98948.93
2023-03-08T05:12:43.022Z,98952.65
2023-03-08T05:15:15.715Z,98949.85
2023-03-08T05:17:47.504Z,98952.49
2023-03-08T05:20:21.587Z,98949.58
2023-03-08T05:22:58.875Z,98956.54
2023-03-08T05:25:37.699Z,98961.75
2023-03-08T05:28:09.440Z,98971.67
2023-03-08T05:30:42.412Z,98976.58
2023-03-08T05:33:14.335Z,98979.99
2023-03-08T05:35:55.530Z,98987.45
2023-03-08T05:38:28.540Z,98990.59
2023-03-08T05:41:05.413Z,98991.38
2023-03-08T05:43:37.510Z,99002.33
2023-03-08T05:46:12.220Z,99006.61
2023-03-08T05:48:44.461Z,99005.59
2023-03-08T05:51:18.918Z,99006.23
2023-03-08T05:53:50.850Z,99008.12
2023-03-08T05:56:26.356Z,99011.67
2023-03-08T05:59:07.194Z,99016.84
2023-03-08T06:01:39.062Z,99025.52
2023-03-08T06:04:44.584Z,99029.73
2023-03-08T06:07:18.340Z,99031.16
2023-03-08T06:09:55.615Z,99037.02
2023-03-08T06:12:28.517Z,99037.47
2023-03-08T06:15:01.915Z,99044.80
2023-03-08T06:17:35.980Z,99056.30
2023-03-08T06:20:09.135Z,99064.65
2023-03-08T06:22:42.303Z,99069.56
2023-03-08T06:25:14.784Z,99073.61
2023-03-08T06:27:47.229Z,99076.20
2023-03-08T06:30:26.770Z,99080.44
2023-03-08T06:32:58.990Z,99091.61
2023-03-08T06:35:31.110Z,99090.48
2023-03-08T06:38:06.160Z,99096.77
2023-03-08T06:40:42.011Z,99102.04
2023-03-08T06:43:12.271Z,99106.65
2023-03-08T06:45:46.255Z,99109.95
2023-03-08T06:48:18.409Z,99111.91
2023-03-08T06:50:50.458Z,99120.27
2023-03-08T06:53:22.468Z,99124.83
2023-03-08T06:56:03.083Z,99130.64
2023-03-08T06:58:36.897Z,99131.33
2023-03-08T07:01:09.881Z,99136.75
2023-03-08T07:03:41.912Z,99138.19
2023-03-08T07:06:13.711Z,99138.37
2023-03-08T07:08:45.422Z,99137.95
2023-03-08T07:11:17.207Z,99132.68
2023-03-08T07:13:49.055Z,99141.25
2023-03-08T07:16:20.870Z,99142.83
2023-03-08T07:18:52.646Z,99139.05
2023-03-08T07:21:24.797Z,99145.30
2023-03-08T07:23:56.551Z,99152.25
2023-03-08T07:26:28.271Z,99154.32
2023-03-08T07:29:00.100Z,99146.98
2023-03-08T07:31:32.647Z,99141.51
2023-03-08T07:34:04.432Z,99146.73
2023-03-08T07:36:36.563Z,99142.95
2023-03-08T07:39:08.325Z,99143.98
2023-03-08T07:41:40.450Z,99145.00
2023-03-08T07:44:12.163Z,99148.84
2023-03-08T07:46:43.876Z,99150.36
2023-03-08T07:49:15.797Z,99153.11
2023-03-08T07:51:47.514Z,99156.54
2023-03-08T07:54:21.559Z,99158.14
2023-03-08T07:56:53.995Z,99169.38
2023-03-08T07:59:25.902Z,99172.06
2023-03-08T08:01:57.666Z,99173.30
2023-03-08T08:04:29.510Z,99173.98
2023-03-08T08:07:01.925Z,99174.38
2023-03-08T08:09:34.825Z,99187.02
2023-03-08T08:12:07.271Z,99183.70
2023-03-08T08:14:39.013Z,99189.39
2023-03-08T08:17:10.763Z,99192.90
2023-03-08T08:19:42.505Z,99192.77
2023-03-08T08:22:14.494Z,99200.55
2023-03-08T08:24:46.373Z,99199.56
2023-03-08T08:27:18.061Z,99207.29
2023-03-08T08:29:50.950Z,99203.16
2023-03-08T08:32:22.673Z,99207.17
2023-03-08T08:34:54.385Z,99212.68
2023-03-08T08:37:26.168Z,99212.71
2023-03-08T08:39:57.905Z,99215.92
2023-03-08T08:42:29.815Z,99212.79
2023-03-08T08:45:01.579Z,99214.20
2023-03-08T08:47:33.423Z,99214.33
2023-03-08T08:50:05.486Z,99218.86
2023-03-08T08:52:37.219Z,99217.20
2023-03-08T08:55:10.087Z,99219.23
2023-03-08T08:57:41.790Z,99224.27
2023-03-08T09:00:16.456Z,99223.15
2023-03-08T09:02:46.710Z,99226.20
2023-03-08T09:05:18.729Z,99229.06
2023-03-08T09:07:50.707Z,99230.33
2023-03-08T09:10:22.790Z,99232.05
2023-03-08T09:12:54.572Z,99233.39
2023-03-08T09:15:26.333Z,99232.52
2023-03-08T09:17:58.035Z,99234.98
2023-03-08T09:20:29.715Z,99237.42
2023-03-08T09:23:01.423Z,99241.40
2023-03-08T09:25:33.286Z,99239.58
2023-03-08T09:28:05.076Z,99241.52
2023-03-08T09:30:36.850Z,99244.66
2023-03-08T09:33:08.645Z,99245.38
2023-03-08T09:35:40.600Z,99241.73
2023-03-08T09:38:12.434Z,99242.74
2023-03-08T09:40:58.230Z,99244.84
2023-03-08T09:43:39.493Z,99241.23
2023-03-08T09:46:16.356Z,99235.21
2023-03-08T09:48:51.575Z,99236.33
2023-03-08T09:51:23.788Z,99239.64
2023-03-08T09:54:00.396Z,99241.98
2023-03-08T09:56:38.147Z,99241.45
2023-03-08T09:59:15.064Z,99236.30
2023-03-08T10:01:52.361Z,99232.77
2023-03-08T10:04:41.953Z,99225.60
2023-03-08T10:07:20.742Z,99229.70
2023-03-08T10:10:00.515Z,99231.52
2023-03-08T10:12:36.869Z,99235.98
2023-03-08T10:15:12.733Z,99240.27
2023-03-08T10:17:49.097Z,99241.05
2023-03-08T10:20:23.338Z,99237.55
2023-03-08T10:23:01.027Z,99235.54
2023-03-08T10:25:34.143Z,99236.59
2023-03-08T10:28:11.258Z,99237.73
2023-03-08T10:30:49.666Z,99236.73
2023-03-08T10:33:24.333Z,99227.19
2023-03-08T10:36:02.234Z,99226.27
2023-03-08T10:38:35.893Z,99232.42
2023-03-08T10:41:13.545Z,99227.62
2023-03-08T10:43:49.377Z,99220.78
2023-03-08T10:46:22.597Z,99219.52
2023-03-08T10:48:54.731Z,99225.09
2023-03-08T10:51:28.545Z,99227.19
2023-03-08T10:54:02.838Z,99224.48
2023-03-08T10:56:44.801Z,99227.76
2023-03-08T10:59:27.638Z,99235.25
2023-03-08T11:02:01.658Z,99232.96
2023-03-08T11:04:33.704Z,99233.72
2023-03-08T11:07:24.188Z,99233.12
2023-03-08T11:10:08.179Z,99232.70
2023-03-08T11:12:40.433Z,99233.95
2023-03-08T11:15:17.746Z,99232.92
2023-03-08T11:17:56.760Z,99237.38
2023-03-08T11:20:31.787Z,99236.70
2023-03-08T11:23:13.917Z,99235.96
2023-03-08T11:25:48.477Z,99229.51
2023-03-08T11:28:23.665Z,99232.52
2023-03-08T11:31:04.238Z,99226.84
2023-03-08T11:34:01.536Z,99227.86
2023-03-08T11:36:39.700Z,99225.48
2023-03-08T11:39:19.964Z,99230.42
2023-03-08T11:41:57.317Z,99226.67
2023-03-08T11:44:37.841Z,99222.20
2023-03-08T11:47:43.946Z,99215.56
2023-03-08T11:50:19.930Z,99209.61
2023-03-08T11:53:00.541Z,99208.94
2023-03-08T11:55:43.578Z,99210.54
2023-03-08T11:58:20.435Z,99203.02
2023-03-08T12:00:54.967Z,99197.09
2023-03-08T12:03:29.389Z,99196.30
2023-03-08T12:06:03.044Z,99191.16
2023-03-08T12:08:37.999Z,99192.09
2023-03-08T12:11:11.869Z,99191.28
2023-03-08T12:13:45.486Z,99185.67
2023-03-08T12:16:21.064Z,99187.69
2023-03-08T12:18:57.422Z,99191.21
2023-03-08T12:21:38.791Z,99188.83
2023-03-08T12:24:25.016Z,99187.46
2023-03-08T12:27:00.110Z,99192.13
2023-03-08T12:29:37.191Z,99196.98
2023-03-08T12:32:09.426Z,99196.61
2023-03-08T12:34:42.341Z,99206.30
2023-03-08T12:37:25.947Z,99204.26
2023-03-08T12:40:04.803Z,99203.17
2023-03-08T12:42:38.892Z,99206.02
2023-03-08T12:45:28.053Z,99207.60
2023-03-08T12:48:10.222Z,99203.07
2023-03-08T12:50:44.596Z,99208.63
2023-03-08T12:53:27.590Z,99207.73
2023-03-08T12:56:08.396Z,99206.35
2023-03-08T12:58:39.360Z,99205.02
2023-03-08T13:01:30.201Z,99203.05
2023-03-08T13:04:02.204Z,99205.20
2023-03-08T13:06:57.649Z,99201.61
2023-03-08T13:09:31.753Z,99201.59
2023-03-08T13:12:22.030Z,99202.40
2023-03-08T13:15:10.112Z,99198.31
2023-03-08T13:17:48.654Z,99196.27
2023-03-08T13:20:24.217Z,99196.69
2023-03-08T13:23:08.969Z,99196.38
2023-03-08T13:25:49.936Z,99196.08
2023-03-08T13:28:23.868Z,99196.63
2023-03-08T13:30:58.240Z,99197.23
2023-03-08T13:33:31.979Z,99201.02
2023-03-08T13:36:05.290Z,99202.59
2023-03-08T13:38:38.905Z,99200.05
2023-03-08T13:41:10.609Z,99198.94
2023-03-08T13:43:42.234Z,99195.52
2023-03-08T13:46:17.152Z,99192.77
2023-03-08T13:48:49.104Z,99187.33
2023-03-08T13:51:21.084Z,99182.12
2023-03-08T13:53:52.749Z,99179.27
2023-03-08T13:56:26.502Z,99181.04
2023-03-08T13:58:59.347Z,99178.16
2023-03-08T14:01:31.108Z,99175.87
2023-03-08T14:04:13.132Z,99171.67
2023-03-08T14:06:51.469Z,99171.92
2023-03-08T14:09:23.655Z,99168.88
2023-03-08T14:12:02.240Z,99168.89
2023-03-08T14:14:35.534Z,99165.16
2023-03-08T14:17:07.714Z,99162.81
2023-03-08T14:19:41.358Z,99158.42
2023-03-08T14:22:17.909Z,99161.55
2023-03-08T14:24:55.824Z,99163.43
2023-03-08T14:27:37.272Z,99163.92
2023-03-08T14:30:17.440Z,99162.59
2023-03-08T14:33:21.995Z,99161.17
2023-03-08T14:35:59.972Z,99152.70
2023-03-08T14:38:33.638Z,99146.49
2023-03-08T14:41:07.135Z,99144.36
2023-03-08T14:43:39.232Z,99138.91
2023-03-08T14:46:16.284Z,99138.82
2023-03-08T14:49:02.414Z,99139.54
2023-03-08T14:51:39.802Z,99138.41
2023-03-08T14:54:24.320Z,99135.55
2023-03-08T14:56:56.045Z,99133.27
2023-03-08T14:59:28.357Z,99129.73
2023-03-08T15:02:00.116Z,99125.52
2023-03-08T15:04:31.855Z,99122.31
2023-03-08T15:07:03.756Z,99120.55
2023-03-08T15:09:35.795Z,99116.23
2023-03-08T15:12:09.376Z,99116.79
2023-03-08T15:14:41.008Z,99118.92
2023-03-08T15:17:12.614Z,99117.66
2023-03-08T15:19:44.228Z,99109.51
2023-03-08T15:22:16.158Z,99111.27
2023-03-08T15:24:47.730Z,99108.77
2023-03-08T15:27:19.466Z,99108.79
2023-03-08T15:29:51.099Z,99110.63
2023-03-08T15:32:22.764Z,99107.83
2023-03-08T15:34:54.382Z,99105.30
2023-03-08T15:37:26.050Z,99105.56
2023-03-08T15:39:57.738Z,99109.19
2023-03-08T15:42:29.370Z,99105.85
2023-03-08T15:45:01.117Z,99100.38
2023-03-08T15:47:32.913Z,99101.14
2023-03-08T15:50:04.891Z,99097.08
2023-03-08T15:52:36.673Z,99095.79
2023-03-08T15:55:11.755Z,99100.80
2023-03-08T15:57:43.475Z,99099.21
2023-03-08T16:00:18.062Z,99100.13
2023-03-08T16:02:49.950Z,99102.08
2023-03-08T16:05:25.747Z,99104.80
2023-03-08T16:07:59.401Z,99108.30
2023-03-08T16:10:37.582Z,99115.77
2023-03-08T16:13:09.662Z,99119.77
2023-03-08T16:15:43.036Z,99116.64
2023-03-08T16:18:14.722Z,99116.07
2023-03-08T16:20:46.634Z,99114.13
2023-03-08T16:23:18.339Z,99113.91
2023-03-08T16:26:13.584Z,99116.61
2023-03-08T16:28:48.259Z,99115.45
2023-03-08T16:31:23.100Z,99112.23
2023-03-08T16:33:54.744Z,99116.49
2023-03-08T16:36:26.430Z,99115.19
2023-03-08T16:38:58.102Z,99115.48
2023-03-08T16:41:30.279Z,99112.15
2023-03-08T16:44:02.117Z,99112.93
2023-03-08T16:46:34.374Z,99114.06
2023-03-08T16:49:06.063Z,99118.02
2023-03-08T16:51:38.487Z,99116.61
2023-03-08T16:54:11.127Z,99120.13
2023-03-08T16:56:43.623Z,99112.98
2023-03-08T16:59:16.588Z,99112.06
2023-03-08T17:01:49.932Z,99115.45
2023-03-08T17:04:22.825Z,99119.02
2023-03-08T17:06:54.501Z,99117.36
2023-03-08T17:09:26.183Z,99116.91
2023-03-08T17:11:57.826Z,99114.08
2023-03-08T17:14:29.521Z,99111.58
2023-03-08T17:17:01.258Z,99108.70
2023-03-08T17:19:32.911Z,99104.16
2023-03-08T17:22:04.624Z,99105.30
2023-03-08T17:24:36.406Z,99107.92
2023-03-08T17:27:08.366Z,99113.92
2023-03-08T17:29:40.294Z,99116.79
2023-03-08T17:32:12.028Z,99112.11
2023-03-08T17:34:43.700Z,99107.46
2023-03-08T17:37:15.842Z,99107.27
2023-03-08T17:39:47.812Z,99108.40
2023-03-08T17:42:19.510Z,99111.58
2023-03-08T17:44:51.291Z,99108.52
2023-03-08T17:47:23.064Z,99104.77
2023-03-08T17:49:54.888Z,99102.08
2023-03-08T17:52:26.866Z,99099.48
2023-03-08T17:54:58.681Z,99103.98
2023-03-08T17:57:30.668Z,99104.25
2023-03-08T18:00:02.574Z,99102.66
2023-03-08T18:02:36.146Z,99103.85
2023-03-08T18:05:09.865Z,99106.54
2023-03-08T18:07:42.208Z,99100.83
2023-03-08T18:10:14.853Z,99097.60
2023-03-08T18:12:47.295Z,99100.17
2023-03-08T18:15:19.090Z,99098.24
2023-03-08T18:17:50.924Z,99098.03
2023-03-08T18:20:24.751Z,99097.73
2023-03-08T18:22:56.459Z,99092.89
2023-03-08T18:25:28.361Z,99095.08
2023-03-08T18:28:00.203Z,99094.45
2023-03-08T18:30:31.994Z,99095.36
2023-03-08T18:33:05.254Z,99091.59
2023-03-08T18:35:36.994Z,99085.59
2023-03-08T18:38:08.715Z,99089.77
2023-03-08T18:40:40.378Z,99090.74
2023-03-08T18:43:12.018Z,99087.11
2023-03-08T18:45:43.970Z,99088.02
2023-03-08T18:48:15.752Z,99087.23
2023-03-08T18:50:47.506Z,99088.42
2023-03-08T18:53:19.635Z,99086.39
2023-03-08T18:55:59.129Z,99084.27
2023-03-08T18:58:31.315Z,99084.01
2023-03-08T19:01:03.337Z,99083.30
2023-03-08T19:03:35.092Z,99079.64
2023-03-08T19:06:07.805Z,99082.93
2023-03-08T19:08:39.498Z,99081.27
2023-03-08T19:11:15.565Z,99084.17
2023-03-08T19:13:47.683Z,99082.26
2023-03-08T19:16:23.739Z,99082.00
2023-03-08T19:18:57.591Z,99073.14
2023-03-08T19:21:30.855Z,99066.03
2023-03-08T19:24:02.844Z,99065.86
2023-03-08T19:26:38.645Z,99065.39
2023-03-08T19:29:12.938Z,99061.38
2023-03-08T19:31:46.643Z,99057.16
2023-03-08T19:34:18.890Z,99057.35
2023-03-08T19:36:51.413Z,99055.08
2023-03-08T19:39:25.546Z,99048.96
2023-03-08T19:41:58.784Z,99046.48
2023-03-08T19:44:31.449Z,99042.16
2023-03-08T19:47:04.567Z,99035.77
2023-03-08T19:49:37.881Z,99034.96
2023-03-08T19:52:11.103Z,99025.30
2023-03-08T19:54:43.154Z,99018.59
2023-03-08T19:57:14.783Z,99016.61
2023-03-08T19:59:46.610Z,99012.73
2023-03-08T20:02:18.447Z,99008.32
2023-03-08T20:04:50.527Z,99007.67
2023-03-08T20:07:22.321Z,99008.90
2023-03-08T20:09:57.586Z,99003.95
2023-03-08T20:12:32.692Z,99000.73
2023-03-08T20:15:06.528Z,98997.10
2023-03-08T20:17:38.784Z,98990.48
2023-03-08T20:20:13.042Z,98986.04
2023-03-08T20:22:45.106Z,98985.13
2023-03-08T20:25:20.036Z,98980.13
2023-03-08T20:27:51.961Z,98974.05
2023-03-08T20:30:23.727Z,98974.30
2023-03-08T20:32:55.479Z,98971.39
2023-03-08T20:35:27.641Z,98972.11
2023-03-08T20:37:59.392Z,98970.15
2023-03-08T20:40:31.141Z,98966.77
2023-03-08T20:43:02.884Z,98970.90
2023-03-08T20:45:34.620Z,98968.73
2023-03-08T20:48:06.782Z,98962.89
2023-03-08T20:50:38.499Z,98957.42
2023-03-08T20:53:10.153Z,98952.58
2023-03-08T20:55:42.246Z,98951.59
2023-03-08T20:58:13.964Z,98947.81
2023-03-08T21:00:45.715Z,98939.66
2023-03-08T21:03:17.517Z,98934.06
2023-03-08T21:05:49.982Z,98933.73
2023-03-08T21:08:24.231Z,98929.16
2023-03-08T21:10:59.720Z,98924.06
2023-03-08T21:13:31.560Z,98918.30
2023-03-08T21:16:08.478Z,98913.70
2023-03-08T21:18:45.681Z,98906.54
2023-03-08T21:21:24.771Z,98909.84
2023-03-08T21:23:57.688Z,98908.08
2023-03-08T21:26:31.107Z,98901.53
2023-03-08T21:29:04.731Z,98907.39
2023-03-08T21:31:38.510Z,98900.84
2023-03-08T21:34:11.850Z,98892.92
2023-03-08T21:36:44.422Z,98889.89
2023-03-08T21:39:16.588Z,98887.93
2023-03-08T21:41:50.524Z,98884.31
2023-03-08T21:44:22.662Z,98883.23
2023-03-08T21:46:55.350Z,98877.11
2023-03-08T21:49:30.365Z,98871.83
2023-03-08T21:52:02.396Z,98865.88
2023-03-08T21:54:34.187Z,98858.70
2023-03-08T21:57:06.070Z,98854.73
2023-03-08T21:59:37.876Z,98850.47
2023-03-08T22:02:12.206Z,98845.33
2023-03-08T22:04:44.121Z,98838.92
2023-03-08T22:07:15.842Z,98835.20
2023-03-08T22:09:47.668Z,98831.88
2023-03-08T22:12:19.959Z,98831.65
2023-03-08T22:14:51.878Z,98831.22
2023-03-08T22:17:23.790Z,98832.88
2023-03-08T22:19:55.537Z,98830.55
2023-03-08T22:22:27.281Z,98830.95
2023-03-08T22:24:58.931Z,98830.17
2023-03-08T22:27:30.718Z,98826.80
2023-03-08T22:30:02.459Z,98829.13
2023-03-08T22:32:34.282Z,98826.90
2023-03-08T22:35:06.652Z,98832.02
2023-03-08T22:37:38.798Z,98832.89
2023-03-08T22:40:13.468Z,98830.17
2023-03-08T22:42:45.211Z,98830.63
2023-03-08T22:45:17.510Z,98827.14
2023-03-08T22:47:49.469Z,98828.21
2023-03-08T22:50:21.489Z,98824.16
2023-03-08T22:52:53.227Z,98824.48
2023-03-08T22:55:25.284Z,98820.80
2023-03-08T22:57:57.061Z,98821.07
2023-03-08T23:00:29.267Z,98815.82
2023-03-08T23:03:01.114Z,98814.00
2023-03-08T23:05:33.108Z,98810.73
2023-03-08T23:08:06.322Z,98807.81
2023-03-08T23:10:38.240Z,98804.34
2023-03-08T23:13:14.384Z,98805.95
2023-03-08T23:15:50.446Z,98803.17
2023-03-08T23:18:22.657Z,98805.20
2023-03-08T23:20:54.572Z,98801.35
2023-03-08T23:23:26.625Z,98799.09
2023-03-08T23:25:58.776Z,98795.10
2023-03-08T23:28:35.387Z,98790.98
2023-03-08T23:31:11.299Z,98788.65
2023-03-08T23:33:43.820Z,98790.69
2023-03-08T23:36:17.879Z,98789.48
2023-03-08T23:38:50.235Z,98787.02
2023-03-08T23:41:28.658Z,98785.96
2023-03-08T23:44:02.163Z,98784.01
2023-03-08T23:46:33.914Z,98785.41
2023-03-08T23:49:05.848Z,98786.08
2023-03-08T23:51:37.572Z,98785.98
2023-03-08T23:54:10.563Z,98779.97
2023-03-08T23:56:43.025Z,98784.20
2023-03-08T23:59:18.223Z,98780.98
